Preview of NWS' New Version of Forecast
This preview is not operational and should not be used for support decisions.

Terminal Aerodrome Forecast (TAF)

Issued by National Weather Service (NWS)

                            
000
FTUS42 KCAE 201739
TAFOGB
TAF
KOGB 201739Z 2018/2118 08007KT P6SM FEW250
     FM210200 VRB02KT P6SM SKC
     FM211300 09005KT P6SM FEW250=